Time;durP1;ratioP1;P1;durP2;ratioP2;P2;SDS_P1;SDS_P2;PMS_P1;PMS_P2;Temp;Humidity;BMP_temperature;BMP_pressure;BME280_temperature;BME280_humidity;BME280_pressure;Samples;Min_cycle;Max_cycle;Signal;HPM_P1;HPM_P2
2023/07/01 00:01:35;;;;;;;4.47;4.17;;;17.10;99.90;;;;;;5092163;28;20276;-69
2023/07/01 00:04:01;;;;;;;4.30;4.00;;;17.10;99.90;;;;;;5086050;28;20203;-69
2023/07/01 00:06:27;;;;;;;4.63;4.23;;;17.10;99.90;;;;;;5090535;28;20194;-68
2023/07/01 00:08:54;;;;;;;4.67;4.27;;;17.10;99.90;;;;;;5090718;28;20176;-69
2023/07/01 00:11:20;;;;;;;4.90;3.97;;;17.10;99.90;;;;;;5090829;28;20414;-69
2023/07/01 00:13:46;;;;;;;5.17;4.17;;;17.20;99.90;;;;;;5102596;28;20443;-68
2023/07/01 00:16:13;;;;;;;6.53;5.07;;;17.20;99.90;;;;;;5090833;28;20423;-68
2023/07/01 00:18:42;;;;;;;5.00;4.50;;;17.20;99.90;;;;;;5102323;28;20440;-68
2023/07/01 00:21:08;;;;;;;6.53;4.50;;;17.20;99.90;;;;;;5088705;28;20411;-69
2023/07/01 00:23:34;;;;;;;6.00;5.10;;;17.30;99.90;;;;;;5094567;28;20477;-68
2023/07/01 00:26:00;;;;;;;4.53;4.13;;;17.30;99.90;;;;;;5084371;28;20208;-69
2023/07/01 00:28:26;;;;;;;5.47;4.33;;;17.30;99.90;;;;;;5092696;28;20752;-68
2023/07/01 00:30:52;;;;;;;4.53;4.13;;;17.30;99.90;;;;;;5099998;28;20440;-68
2023/07/01 00:33:17;;;;;;;4.80;4.33;;;17.30;99.90;;;;;;5092545;28;20252;-69
2023/07/01 00:35:43;;;;;;;5.47;4.37;;;17.40;99.90;;;;;;5091592;28;20187;-68
2023/07/01 00:38:08;;;;;;;4.83;4.40;;;17.40;99.90;;;;;;5091276;28;20252;-68
2023/07/01 00:40:34;;;;;;;5.97;4.17;;;17.40;99.90;;;;;;5111564;22;20223;-67
2023/07/01 00:43:00;;;;;;;6.80;4.90;;;17.40;99.90;;;;;;5093846;28;20606;-68
2023/07/01 00:45:25;;;;;;;7.60;4.67;;;17.40;99.90;;;;;;5093814;28;20205;-68
2023/07/01 00:47:51;;;;;;;5.13;4.73;;;17.40;99.90;;;;;;5104224;28;20251;-68
2023/07/01 00:50:17;;;;;;;4.70;4.33;;;17.50;99.90;;;;;;5094984;28;20199;-68
2023/07/01 00:52:43;;;;;;;5.97;4.93;;;17.50;99.90;;;;;;5095196;28;20681;-67
2023/07/01 00:55:11;;;;;;;5.33;4.80;;;17.50;99.90;;;;;;5089981;28;20181;-69
2023/07/01 00:57:37;;;;;;;7.03;4.90;;;17.50;99.90;;;;;;5096083;28;20561;-67
2023/07/01 01:00:11;;;;;;;7.37;5.47;;;17.50;99.90;;;;;;5089628;28;20430;-67
2023/07/01 01:03:04;;;;;;;5.30;4.80;;;17.50;99.90;;;;;;5095146;28;20901;-67
2023/07/01 01:05:42;;;;;;;6.50;4.60;;;17.50;99.90;;;;;;5088763;28;20455;-69
2023/07/01 01:09:01;;;;;;;5.87;5.37;;;17.50;99.90;;;;;;5086448;28;20402;-70
2023/07/01 01:11:31;;;;;;;6.70;4.87;;;17.40;99.90;;;;;;5052245;28;20943;-67
2023/07/01 01:14:00;;;;;;;6.23;5.73;;;17.40;99.90;;;;;;5089989;28;20404;-71
2023/07/01 01:16:26;;;;;;;5.87;5.37;;;17.40;99.90;;;;;;5098517;28;20406;-68
2023/07/01 01:18:53;;;;;;;7.20;5.27;;;17.40;99.90;;;;;;5067696;28;20415;-71
2023/07/01 01:21:21;;;;;;;5.73;5.23;;;17.40;99.90;;;;;;5087854;28;20478;-68
2023/07/01 01:23:55;;;;;;;5.30;4.60;;;17.40;99.90;;;;;;5088261;28;20423;-68
2023/07/01 01:26:26;;;;;;;4.80;4.40;;;17.40;99.90;;;;;;5097649;28;20453;-68
2023/07/01 01:28:52;;;;;;;6.07;4.50;;;17.30;99.90;;;;;;5093372;28;20403;-68
2023/07/01 01:31:19;;;;;;;5.87;5.20;;;17.30;99.90;;;;;;5094159;28;20421;-67
2023/07/01 01:33:46;;;;;;;6.20;5.00;;;17.30;99.90;;;;;;5091414;28;20426;-68
2023/07/01 01:36:20;;;;;;;4.27;3.97;;;17.30;99.90;;;;;;5092793;28;20482;-68
2023/07/01 01:38:46;;;;;;;5.33;4.83;;;17.30;99.90;;;;;;5103326;28;20938;-68
2023/07/01 01:41:58;;;;;;;6.87;5.00;;;17.40;99.90;;;;;;5093611;28;20451;-67
2023/07/01 01:44:35;;;;;;;6.97;4.90;;;17.40;99.90;;;;;;5068244;28;20883;-70
2023/07/01 01:47:02;;;;;;;5.57;5.17;;;17.30;99.90;;;;;;5070747;28;20434;-67
2023/07/01 01:49:30;;;;;;;7.17;5.47;;;17.30;99.90;;;;;;5097597;28;20493;-68
2023/07/01 01:51:56;;;;;;;6.40;5.53;;;17.40;99.90;;;;;;5100895;28;20403;-69
2023/07/01 01:54:24;;;;;;;6.37;5.80;;;17.40;99.90;;;;;;5093735;28;20435;-69
2023/07/01 01:56:51;;;;;;;5.40;4.90;;;17.30;99.90;;;;;;5098330;28;20414;-69
2023/07/01 01:59:17;;;;;;;5.70;5.20;;;17.40;99.90;;;;;;5091460;28;20422;-69
2023/07/01 02:01:42;;;;;;;6.60;5.40;;;17.30;99.90;;;;;;5090308;28;20433;-69
2023/07/01 02:04:08;;;;;;;5.27;4.77;;;17.30;99.90;;;;;;5069181;28;20935;-68
2023/07/01 02:06:34;;;;;;;6.77;6.00;;;17.30;99.90;;;;;;5095314;28;20282;-68
2023/07/01 02:08:59;;;;;;;6.00;5.30;;;17.30;99.90;;;;;;5094264;28;20713;-68
2023/07/01 02:11:25;;;;;;;5.87;5.27;;;17.30;99.90;;;;;;5093357;28;20192;-69
2023/07/01 02:13:51;;;;;;;7.00;6.03;;;17.30;99.90;;;;;;5092423;28;20198;-67
2023/07/01 02:16:16;;;;;;;6.87;6.17;;;17.30;99.90;;;;;;5073658;28;20173;-68
2023/07/01 02:18:42;;;;;;;6.33;5.70;;;17.30;99.90;;;;;;5097084;28;20668;-68
2023/07/01 02:21:08;;;;;;;5.60;5.10;;;17.30;99.90;;;;;;5090000;28;20632;-69
2023/07/01 02:23:33;;;;;;;7.10;6.50;;;17.30;99.90;;;;;;5090387;28;20204;-68
2023/07/01 02:25:59;;;;;;;6.10;5.50;;;17.30;99.90;;;;;;5099454;28;20689;-69
2023/07/01 02:28:24;;;;;;;6.23;5.63;;;17.30;99.90;;;;;;5092553;28;20268;-68
2023/07/01 02:30:50;;;;;;;6.23;5.53;;;17.30;99.90;;;;;;5081238;28;20185;-70
2023/07/01 02:33:15;;;;;;;6.10;5.50;;;17.30;99.90;;;;;;5087433;28;20214;-68
2023/07/01 02:35:41;;;;;;;6.83;6.30;;;17.30;99.90;;;;;;5096024;28;20550;-68
2023/07/01 02:38:08;;;;;;;7.57;6.13;;;17.30;99.90;;;;;;5068509;28;20177;-70
2023/07/01 02:40:33;;;;;;;7.03;6.53;;;17.40;99.90;;;;;;5088969;28;20213;-69
2023/07/01 02:42:59;;;;;;;7.30;6.70;;;17.30;99.90;;;;;;5091399;28;20406;-68
2023/07/01 02:45:26;;;;;;;7.17;5.93;;;17.30;99.90;;;;;;5092521;28;20568;-69
2023/07/01 02:47:51;;;;;;;6.57;5.50;;;17.30;99.90;;;;;;5091658;28;20210;-68
2023/07/01 02:50:17;;;;;;;6.97;6.33;;;17.30;99.90;;;;;;5097015;28;20460;-68
2023/07/01 02:52:42;;;;;;;7.60;5.77;;;17.30;99.90;;;;;;5090687;28;20234;-70
2023/07/01 02:55:08;;;;;;;6.23;5.47;;;17.20;99.90;;;;;;5096463;28;20623;-69
2023/07/01 02:57:34;;;;;;;10.10;6.20;;;17.30;99.90;;;;;;5079032;28;20171;-69
2023/07/01 02:59:59;;;;;;;6.13;5.73;;;17.20;99.90;;;;;;5086904;28;20208;-68
2023/07/01 03:02:25;;;;;;;6.87;5.47;;;17.20;99.90;;;;;;5097103;28;20211;-68
2023/07/01 03:04:51;;;;;;;8.03;7.23;;;17.20;99.90;;;;;;5086836;28;20195;-67
2023/07/01 03:07:16;;;;;;;5.30;4.80;;;17.20;99.90;;;;;;5101759;28;20506;-67
2023/07/01 03:09:42;;;;;;;7.20;6.37;;;17.20;99.90;;;;;;5095061;28;20301;-70
2023/07/01 03:12:07;;;;;;;7.60;6.70;;;17.20;99.90;;;;;;5091185;28;20550;-67
2023/07/01 03:14:33;;;;;;;7.07;6.20;;;17.10;99.90;;;;;;5095069;28;20181;-69
2023/07/01 03:16:59;;;;;;;6.90;6.20;;;17.10;99.90;;;;;;5067961;28;20166;-68
2023/07/01 03:19:24;;;;;;;6.80;6.10;;;17.10;99.90;;;;;;5096859;28;20249;-67
2023/07/01 03:21:50;;;;;;;7.63;6.87;;;17.10;99.90;;;;;;5086736;28;20168;-68
2023/07/01 03:24:15;;;;;;;7.50;6.17;;;17.10;99.90;;;;;;5096156;28;20531;-69
2023/07/01 03:26:42;;;;;;;6.10;5.60;;;17.10;99.90;;;;;;5092429;28;20204;-68
2023/07/01 03:29:08;;;;;;;7.77;7.07;;;17.10;99.90;;;;;;5095435;28;20172;-69
2023/07/01 03:31:33;;;;;;;9.70;7.50;;;17.00;99.90;;;;;;5096122;28;20427;-68
2023/07/01 03:33:59;;;;;;;6.47;5.77;;;17.00;99.90;;;;;;5071685;28;20194;-70
2023/07/01 03:36:25;;;;;;;8.50;7.53;;;17.00;99.90;;;;;;5096665;28;20175;-69
2023/07/01 03:38:50;;;;;;;7.63;6.93;;;17.00;99.90;;;;;;5087094;28;20185;-68
2023/07/01 03:41:16;;;;;;;7.90;7.10;;;17.00;99.90;;;;;;5104562;28;20524;-70
2023/07/01 03:43:42;;;;;;;6.53;6.03;;;17.00;99.90;;;;;;5080681;28;20172;-68
2023/07/01 03:46:07;;;;;;;8.10;7.40;;;16.90;99.90;;;;;;5096073;28;20206;-69
2023/07/01 03:48:34;;;;;;;8.40;7.60;;;17.00;99.90;;;;;;5102127;28;20171;-69
2023/07/01 03:50:59;;;;;;;7.20;6.50;;;16.90;99.90;;;;;;5085382;28;20191;-69
2023/07/01 03:53:25;;;;;;;8.20;7.40;;;17.00;99.90;;;;;;5073558;28;20466;-68
2023/07/01 03:55:51;;;;;;;7.17;6.57;;;17.00;99.90;;;;;;5101127;28;20417;-69
2023/07/01 03:58:21;;;;;;;8.90;7.80;;;17.00;99.90;;;;;;5092022;28;20179;-70
2023/07/01 04:00:48;;;;;;;8.00;7.20;;;17.10;99.90;;;;;;5101154;28;20465;-69
2023/07/01 04:03:14;;;;;;;8.43;7.63;;;17.20;99.90;;;;;;5090259;28;20417;-68
2023/07/01 04:05:39;;;;;;;7.17;6.57;;;17.30;99.90;;;;;;5100288;28;20453;-68
2023/07/01 04:08:05;;;;;;;10.47;8.53;;;17.30;99.90;;;;;;5076142;28;20172;-69
2023/07/01 04:10:30;;;;;;;8.57;7.77;;;17.40;99.90;;;;;;5097389;28;20218;-69
2023/07/01 04:12:58;;;;;;;9.30;6.43;;;17.50;99.90;;;;;;5101289;28;20192;-70
2023/07/01 04:15:24;;;;;;;8.20;7.40;;;17.60;99.90;;;;;;5093640;28;20264;-69
2023/07/01 04:17:50;;;;;;;8.37;7.57;;;17.70;99.90;;;;;;5093692;28;20917;-69
2023/07/01 04:20:16;;;;;;;8.13;6.83;;;18.00;99.90;;;;;;5095010;28;20434;-70
2023/07/01 04:22:42;;;;;;;8.50;7.77;;;18.20;99.90;;;;;;5099533;28;20177;-69
2023/07/01 04:25:08;;;;;;;7.60;6.53;;;18.20;99.90;;;;;;5094115;28;20459;-70
2023/07/01 04:27:35;;;;;;;6.93;6.33;;;18.30;99.90;;;;;;5072507;28;20212;-68
2023/07/01 04:30:01;;;;;;;7.20;6.60;;;18.40;99.90;;;;;;5086103;28;20478;-68
2023/07/01 04:32:28;;;;;;;8.70;7.90;;;18.30;99.90;;;;;;5090887;28;21895;-68
2023/07/01 04:34:54;;;;;;;7.17;6.57;;;18.00;99.90;;;;;;5098432;28;20412;-68
2023/07/01 04:37:20;;;;;;;8.13;6.33;;;18.00;99.90;;;;;;5070334;28;20426;-68
2023/07/01 04:39:45;;;;;;;7.30;6.43;;;18.00;99.90;;;;;;5091327;28;20526;-68
2023/07/01 04:42:11;;;;;;;6.60;6.00;;;18.00;99.90;;;;;;5093829;28;20171;-68
2023/07/01 04:44:37;;;;;;;6.63;6.03;;;18.10;99.90;;;;;;5074141;28;20177;-68
2023/07/01 04:47:02;;;;;;;6.77;6.17;;;17.90;99.90;;;;;;5093141;28;20506;-68
2023/07/01 04:49:28;;;;;;;8.17;6.70;;;17.90;99.90;;;;;;5099465;28;20188;-70
2023/07/01 04:51:54;;;;;;;7.57;6.90;;;18.10;99.90;;;;;;5081562;28;20203;-69
2023/07/01 04:54:19;;;;;;;7.57;6.60;;;18.00;99.90;;;;;;5072062;28;20181;-69
2023/07/01 04:56:45;;;;;;;7.57;6.10;;;18.00;99.90;;;;;;5092703;28;20185;-67
2023/07/01 04:59:10;;;;;;;7.70;6.23;;;18.00;99.90;;;;;;5093429;28;20174;-67
2023/07/01 05:01:36;;;;;;;6.80;6.10;;;18.20;99.90;;;;;;5092063;28;20200;-68
2023/07/01 05:04:02;;;;;;;6.73;6.13;;;18.30;99.90;;;;;;5088234;28;20175;-68
2023/07/01 05:06:27;;;;;;;6.50;5.90;;;18.50;99.90;;;;;;5096733;28;20199;-67
2023/07/01 05:08:53;;;;;;;6.60;6.10;;;18.50;99.90;;;;;;5103298;28;20173;-69
2023/07/01 05:11:19;;;;;;;5.87;5.37;;;18.50;99.90;;;;;;5076495;28;20301;-69
2023/07/01 05:13:44;;;;;;;8.13;5.90;;;18.90;99.90;;;;;;5092445;28;20183;-68
2023/07/01 05:16:10;;;;;;;6.57;5.50;;;19.20;99.90;;;;;;5089016;28;20171;-68
2023/07/01 05:18:36;;;;;;;5.13;4.73;;;19.60;99.90;;;;;;5074138;28;20267;-68
2023/07/01 05:21:01;;;;;;;5.30;4.80;;;20.00;99.90;;;;;;5088277;28;20196;-68
2023/07/01 05:23:27;;;;;;;5.70;5.13;;;20.30;99.90;;;;;;5096088;28;20562;-69
2023/07/01 05:25:53;;;;;;;5.40;5.00;;;20.50;99.90;;;;;;5095016;28;20196;-69
2023/07/01 05:28:18;;;;;;;5.00;4.50;;;20.60;99.90;;;;;;5089680;28;20256;-70
2023/07/01 05:30:44;;;;;;;4.40;4.10;;;20.70;99.90;;;;;;5100731;28;20242;-68
2023/07/01 05:33:10;;;;;;;6.37;4.87;;;20.90;99.90;;;;;;5070714;28;20178;-68
2023/07/01 05:35:36;;;;;;;4.23;3.83;;;20.90;99.90;;;;;;5072719;28;20425;-68
2023/07/01 05:38:09;;;;;;;4.23;3.93;;;20.80;99.90;;;;;;5090723;28;20734;-68
2023/07/01 05:40:34;;;;;;;4.40;4.00;;;20.50;99.90;;;;;;5095381;28;20211;-70
2023/07/01 05:43:00;;;;;;;12.93;4.50;;;20.50;99.90;;;;;;5076761;28;20461;-68
2023/07/01 05:45:26;;;;;;;4.40;4.00;;;20.90;99.90;;;;;;5089077;28;20189;-69
2023/07/01 05:47:51;;;;;;;5.63;5.13;;;21.40;99.90;;;;;;5099894;28;20171;-68
2023/07/01 05:50:17;;;;;;;5.43;4.00;;;21.60;99.90;;;;;;5092299;28;20662;-68
2023/07/01 05:52:42;;;;;;;4.40;4.10;;;22.20;99.90;;;;;;5094014;28;20325;-68
2023/07/01 05:55:08;;;;;;;5.00;4.50;;;22.30;99.90;;;;;;5092833;28;20190;-69
2023/07/01 05:57:34;;;;;;;4.50;4.10;;;21.90;99.90;;;;;;5096252;28;20544;-67
2023/07/01 06:00:01;;;;;;;5.20;3.40;;;21.50;99.90;;;;;;5090103;28;20201;-68
2023/07/01 06:02:26;;;;;;;3.93;3.63;;;22.10;99.90;;;;;;5074736;28;20578;-68
2023/07/01 06:04:52;;;;;;;3.50;3.30;;;22.80;99.90;;;;;;5087416;28;20451;-69
2023/07/01 06:07:18;;;;;;;3.50;3.00;;;22.80;99.90;;;;;;5079478;28;20174;-68
2023/07/01 06:09:48;;;;;;;6.20;3.67;;;23.30;99.90;;;;;;5090903;28;20270;-70
2023/07/01 06:12:13;;;;;;;3.30;3.00;;;23.50;99.90;;;;;;5093803;28;20460;-68
2023/07/01 06:14:39;;;;;;;6.00;3.17;;;24.30;99.90;;;;;;5077501;28;20415;-67
2023/07/01 06:17:05;;;;;;;3.83;3.00;;;24.70;99.90;;;;;;5090237;28;20636;-69
2023/07/01 06:19:31;;;;;;;4.40;3.07;;;24.80;99.90;;;;;;5073674;28;20230;-68
2023/07/01 06:21:56;;;;;;;4.00;3.00;;;24.30;99.90;;;;;;5084314;28;20416;-68
2023/07/01 06:24:22;;;;;;;3.37;2.90;;;23.90;99.90;;;;;;5096991;28;20256;-67
2023/07/01 06:26:48;;;;;;;2.80;2.60;;;24.40;99.90;;;;;;5092736;28;20296;-71
2023/07/01 06:29:13;;;;;;;3.03;2.73;;;24.90;99.90;;;;;;5093571;28;20169;-68
2023/07/01 06:31:39;;;;;;;3.37;3.07;;;24.90;99.90;;;;;;5095470;28;20280;-68
2023/07/01 06:34:12;;;;;;;2.77;2.57;;;24.90;99.90;;;;;;5091915;28;20200;-66
2023/07/01 06:36:37;;;;;;;2.80;2.30;;;24.90;99.90;;;;;;5094531;28;20540;-68
2023/07/01 06:39:03;;;;;;;2.60;2.40;;;25.10;99.90;;;;;;5084985;28;20432;-68
2023/07/01 06:41:29;;;;;;;2.93;2.73;;;25.20;99.90;;;;;;5102653;28;20224;-68
2023/07/01 06:43:55;;;;;;;3.47;3.13;;;25.10;99.90;;;;;;5095076;22;20632;-69
2023/07/01 06:46:21;;;;;;;2.77;2.13;;;24.90;99.90;;;;;;5070958;28;20287;-68
2023/07/01 06:48:46;;;;;;;2.97;2.40;;;24.90;99.90;;;;;;5070918;28;20718;-68
2023/07/01 06:51:13;;;;;;;4.80;2.23;;;24.90;99.90;;;;;;5072737;28;20202;-72
2023/07/01 06:53:39;;;;;;;3.40;2.30;;;26.00;99.90;;;;;;5071070;28;20176;-68
2023/07/01 06:56:05;;;;;;;3.20;2.50;;;25.80;99.90;;;;;;5070417;28;20462;-68
2023/07/01 06:58:31;;;;;;;2.43;2.23;;;25.80;99.90;;;;;;5070225;28;20523;-68
2023/07/01 07:00:56;;;;;;;5.30;2.30;;;26.00;99.90;;;;;;5070252;28;20400;-68
2023/07/01 07:03:22;;;;;;;7.53;2.90;;;25.90;99.90;;;;;;5070290;28;20185;-69
2023/07/01 07:05:48;;;;;;;2.67;2.47;;;25.40;99.90;;;;;;5070027;28;20204;-67
2023/07/01 07:08:13;;;;;;;2.37;2.17;;;25.40;99.90;;;;;;5070424;28;20234;-69
2023/07/01 07:10:39;;;;;;;2.70;2.50;;;25.50;99.90;;;;;;5070057;28;20170;-69
2023/07/01 07:13:04;;;;;;;2.83;2.13;;;25.20;99.90;;;;;;5057827;28;20199;-70
2023/07/01 07:15:30;;;;;;;2.30;2.10;;;25.40;99.90;;;;;;5049583;28;20280;-69
2023/07/01 07:17:56;;;;;;;2.80;2.47;;;26.30;99.90;;;;;;5053302;28;20235;-68
2023/07/01 07:20:21;;;;;;;1.80;1.70;;;26.70;99.90;;;;;;5070195;28;20682;-69
2023/07/01 07:22:47;;;;;;;3.00;2.40;;;27.00;99.90;;;;;;5070578;28;20659;-68
2023/07/01 07:25:16;;;;;;;2.20;2.10;;;26.90;99.90;;;;;;5069925;28;20190;-71
2023/07/01 07:27:43;;;;;;;2.30;2.10;;;26.40;99.90;;;;;;5052025;28;20174;-70
2023/07/01 07:30:11;;;;;;;4.70;1.93;;;26.70;99.90;;;;;;5069735;28;20519;-68
2023/07/01 07:32:36;;;;;;;2.10;1.80;;;26.90;99.90;;;;;;5053163;28;20854;-68
2023/07/01 07:35:02;;;;;;;2.43;2.10;;;26.30;99.90;;;;;;5050138;28;20460;-68
2023/07/01 07:37:28;;;;;;;3.40;3.10;;;27.20;99.90;;;;;;5065681;28;20201;-68
2023/07/01 07:39:55;;;;;;;2.83;1.90;;;27.20;99.90;;;;;;5069709;28;20166;-67
2023/07/01 07:42:21;;;;;;;2.80;1.90;;;28.00;99.90;;;;;;5069873;28;20400;-69
2023/07/01 07:44:47;;;;;;;4.53;1.73;;;27.80;99.90;;;;;;5069543;28;20444;-68
2023/07/01 07:47:13;;;;;;;4.40;1.70;;;27.20;99.90;;;;;;5069863;28;20633;-68
2023/07/01 07:49:39;;;;;;;1.70;1.60;;;27.20;99.90;;;;;;5052098;28;20534;-74
2023/07/01 07:52:05;;;;;;;2.40;1.50;;;27.30;99.90;;;;;;5070060;28;20487;-70
2023/07/01 07:54:30;;;;;;;3.97;1.80;;;26.70;98.90;;;;;;5069870;28;20685;-68
2023/07/01 07:56:58;;;;;;;2.63;1.70;;;26.20;99.20;;;;;;5064370;28;20178;-69
2023/07/01 07:59:28;;;;;;;2.40;1.57;;;27.10;99.60;;;;;;5062103;28;20170;-70
2023/07/01 08:01:57;;;;;;;2.33;1.40;;;27.20;99.90;;;;;;5070097;28;20408;-69
2023/07/01 08:04:23;;;;;;;2.13;1.47;;;27.30;98.00;;;;;;5070091;28;20443;-68
2023/07/01 08:06:48;;;;;;;2.50;1.27;;;27.10;97.70;;;;;;5068435;28;20440;-70
2023/07/01 08:09:14;;;;;;;3.40;1.70;;;27.40;96.70;;;;;;5057579;28;20567;-70
2023/07/01 08:11:40;;;;;;;2.17;1.67;;;26.90;96.00;;;;;;5069689;28;20190;-72
2023/07/01 08:14:06;;;;;;;4.90;1.93;;;26.80;96.60;;;;;;5069601;28;20186;-73
2023/07/01 08:16:32;;;;;;;1.40;1.30;;;26.90;97.00;;;;;;5069641;28;20412;-69
2023/07/01 08:18:58;;;;;;;2.97;1.50;;;27.30;96.40;;;;;;5069689;28;20174;-68
2023/07/01 08:21:24;;;;;;;2.23;1.60;;;27.40;97.30;;;;;;5069707;28;20422;-68
2023/07/01 08:23:49;;;;;;;2.80;1.57;;;27.50;96.80;;;;;;5064796;28;20169;-68
2023/07/01 08:26:15;;;;;;;3.10;1.90;;;27.50;95.70;;;;;;5071686;28;20236;-68
2023/07/01 08:28:40;;;;;;;3.77;2.30;;;27.50;95.60;;;;;;5072988;28;20235;-70
2023/07/01 08:31:06;;;;;;;2.13;1.50;;;27.50;96.60;;;;;;5073013;28;20560;-68
2023/07/01 08:33:33;;;;;;;2.20;1.60;;;27.90;94.80;;;;;;5073335;28;20281;-68
2023/07/01 08:35:58;;;;;;;2.43;1.77;;;27.10;95.90;;;;;;5055169;28;20221;-73
2023/07/01 08:38:25;;;;;;;1.87;1.63;;;27.90;94.70;;;;;;5073435;28;20504;-69
2023/07/01 08:40:55;;;;;;;3.40;2.00;;;26.90;94.80;;;;;;5073508;28;20170;-70
2023/07/01 08:43:27;;;;;;;3.87;1.73;;;26.80;96.20;;;;;;5073556;28;20408;-69
2023/07/01 08:45:55;;;;;;;1.50;1.40;;;27.40;94.20;;;;;;5061983;28;20939;-69
2023/07/01 08:48:22;;;;;;;1.80;1.43;;;27.70;94.20;;;;;;5066795;28;20894;-69
2023/07/01 08:51:18;;;;;;;2.13;1.77;;;28.00;94.60;;;;;;5072843;28;20406;-69
2023/07/01 08:53:45;;;;;;;1.93;1.60;;;28.20;93.30;;;;;;5062610;28;20427;-69
2023/07/01 08:56:13;;;;;;;5.00;2.27;;;27.90;95.00;;;;;;5072500;28;20457;-68
2023/07/01 08:58:40;;;;;;;3.07;1.97;;;27.80;94.10;;;;;;5072808;28;20506;-68
2023/07/01 09:01:06;;;;;;;1.77;1.67;;;27.70;94.50;;;;;;5072402;28;20400;-70
2023/07/01 09:03:35;;;;;;;1.53;1.40;;;27.60;95.20;;;;;;5072659;28;20461;-69
2023/07/01 09:06:01;;;;;;;2.00;1.60;;;27.30;95.60;;;;;;5072229;28;20475;-68
2023/07/01 09:08:27;;;;;;;3.43;2.00;;;28.50;95.20;;;;;;5054134;28;20428;-69
2023/07/01 09:10:53;;;;;;;1.80;1.67;;;28.10;93.90;;;;;;5072621;28;20439;-70
2023/07/01 09:13:19;;;;;;;1.53;1.00;;;27.80;94.80;;;;;;5072397;28;20209;-68
2023/07/01 09:15:47;;;;;;;3.00;1.80;;;28.30;94.20;;;;;;5071848;28;20957;-69
2023/07/01 09:18:43;;;;;;;2.83;1.50;;;27.80;94.60;;;;;;5072432;28;20232;-68
2023/07/01 09:21:18;;;;;;;2.83;1.73;;;27.50;93.10;;;;;;5051480;28;20595;-70
2023/07/01 09:23:44;;;;;;;2.00;1.83;;;27.50;94.40;;;;;;5070881;28;20474;-72
2023/07/01 09:26:19;;;;;;;3.00;2.00;;;28.10;93.50;;;;;;5071883;28;20471;-69
2023/07/01 09:28:47;;;;;;;3.20;1.73;;;27.60;92.80;;;;;;5072090;28;20162;-69
2023/07/01 09:31:16;;;;;;;3.17;1.43;;;27.40;94.00;;;;;;5071965;28;20405;-69
2023/07/01 09:34:00;;;;;;;1.77;1.37;;;27.30;95.30;;;;;;5072092;28;20413;-72
2023/07/01 09:36:27;;;;;;;4.50;1.47;;;27.70;94.00;;;;;;5072125;28;20508;-70
2023/07/01 09:38:54;;;;;;;2.47;1.53;;;27.60;94.30;;;;;;5071292;28;20412;-70
2023/07/01 09:41:25;;;;;;;2.20;2.00;;;27.70;93.80;;;;;;5071826;28;20404;-69
2023/07/01 09:43:51;;;;;;;2.10;1.63;;;28.00;93.30;;;;;;5053320;28;20423;-70
2023/07/01 09:46:17;;;;;;;2.27;1.80;;;27.70;93.70;;;;;;5071548;28;20475;-70
2023/07/01 09:48:53;;;;;;;1.90;1.80;;;28.00;94.70;;;;;;5070172;28;20412;-72
2023/07/01 09:51:21;;;;;;;3.70;1.60;;;27.80;93.70;;;;;;5071439;28;20272;-71
2023/07/01 09:53:47;;;;;;;3.20;1.97;;;27.90;94.00;;;;;;5071780;28;20421;-68
2023/07/01 09:56:17;;;;;;;3.30;1.70;;;27.90;93.80;;;;;;5071329;28;20400;-72
2023/07/01 09:58:44;;;;;;;1.87;1.63;;;27.70;93.30;;;;;;5071746;28;20396;-69
2023/07/01 10:01:16;;;;;;;2.80;1.83;;;28.50;93.30;;;;;;5071871;28;20424;-69
2023/07/01 10:03:42;;;;;;;3.10;1.87;;;28.40;92.00;;;;;;5071166;28;20754;-69
2023/07/01 10:06:11;;;;;;;4.33;1.90;;;28.10;92.80;;;;;;5070698;28;20463;-68
2023/07/01 10:08:37;;;;;;;3.40;1.40;;;27.80;92.60;;;;;;5053450;28;20481;-70
2023/07/01 10:11:09;;;;;;;4.07;2.17;;;26.70;93.90;;;;;;5071177;28;20979;-73
2023/07/01 10:13:43;;;;;;;3.43;2.13;;;26.70;93.20;;;;;;5070982;28;20469;-69
2023/07/01 10:16:09;;;;;;;3.53;2.10;;;26.70;94.10;;;;;;5070402;28;20455;-69
2023/07/01 10:18:35;;;;;;;3.53;2.03;;;26.20;94.20;;;;;;5070949;28;20450;-70
2023/07/01 10:21:32;;;;;;;2.70;1.97;;;26.20;94.40;;;;;;5070987;28;20774;-69
2023/07/01 10:24:00;;;;;;;3.23;2.03;;;26.60;95.30;;;;;;5070686;28;20180;-69
2023/07/01 10:26:36;;;;;;;2.50;2.00;;;26.50;94.40;;;;;;5070810;28;20602;-70
2023/07/01 10:29:37;;;;;;;2.47;2.17;;;26.30;95.00;;;;;;5071143;28;20415;-69
2023/07/01 10:32:08;;;;;;;2.27;2.00;;;26.20;94.70;;;;;;4989125;28;20502;-69
2023/07/01 10:34:52;;;;;;;3.70;2.33;;;26.00;94.70;;;;;;5056929;28;20431;-72
2023/07/01 10:37:19;;;;;;;3.03;2.73;;;25.70;95.00;;;;;;5071382;28;20419;-69
2023/07/01 10:39:44;;;;;;;2.60;1.80;;;25.40;95.70;;;;;;5070554;28;20400;-69
2023/07/01 10:42:33;;;;;;;2.23;2.03;;;25.40;95.30;;;;;;5070405;28;20917;-73
2023/07/01 10:45:11;;;;;;;3.10;2.13;;;25.90;95.70;;;;;;5052003;28;20231;-72
2023/07/01 10:48:03;;;;;;;5.23;2.30;;;26.00;95.00;;;;;;5070318;28;20408;-74
2023/07/01 10:50:29;;;;;;;2.57;1.90;;;25.80;94.90;;;;;;5038552;28;20412;-69
2023/07/01 10:52:58;;;;;;;2.97;2.30;;;26.10;95.90;;;;;;5069983;28;20433;-70
2023/07/01 10:55:47;;;;;;;3.07;2.50;;;26.50;95.60;;;;;;5070162;28;20421;-68
2023/07/01 10:58:21;;;;;;;4.13;2.33;;;26.20;95.20;;;;;;5069924;28;20415;-67
2023/07/01 11:00:55;;;;;;;4.47;2.13;;;26.10;95.10;;;;;;5069892;28;20398;-71
2023/07/01 11:03:42;;;;;;;2.03;1.80;;;26.50;95.50;;;;;;5070382;28;20916;-68
2023/07/01 11:06:12;;;;;;;2.30;1.90;;;27.00;95.30;;;;;;5053788;28;20462;-68
2023/07/01 11:08:51;;;;;;;3.37;2.43;;;27.20;94.50;;;;;;5069955;28;20416;-69
2023/07/01 11:11:27;;;;;;;3.00;2.50;;;27.40;94.70;;;;;;5070352;28;20472;-69
2023/07/01 11:14:06;;;;;;;3.80;2.27;;;27.00;94.60;;;;;;5070273;28;20505;-69
2023/07/01 11:16:33;;;;;;;2.77;2.57;;;26.70;95.20;;;;;;5070102;28;20414;-71
2023/07/01 11:19:01;;;;;;;4.10;2.40;;;26.50;95.10;;;;;;5070228;28;20414;-69
2023/07/01 11:21:28;;;;;;;2.30;1.90;;;25.80;95.50;;;;;;5070164;28;20766;-69
2023/07/01 11:24:03;;;;;;;2.40;2.10;;;26.00;96.60;;;;;;5069922;28;20410;-69
2023/07/01 11:26:34;;;;;;;2.80;2.10;;;26.10;96.40;;;;;;5051825;28;20477;-69
2023/07/01 11:29:00;;;;;;;2.60;2.40;;;26.50;95.90;;;;;;5061447;28;20407;-70
2023/07/01 11:31:33;;;;;;;6.90;2.30;;;26.30;96.20;;;;;;5070141;28;20400;-73
2023/07/01 11:33:59;;;;;;;3.90;2.30;;;26.70;96.60;;;;;;5051776;28;20415;-70
2023/07/01 11:36:34;;;;;;;2.87;2.47;;;26.50;96.20;;;;;;5070099;28;20807;-68
2023/07/01 11:39:07;;;;;;;3.80;2.20;;;26.40;96.50;;;;;;5069986;28;20438;-68
2023/07/01 11:41:34;;;;;;;3.00;1.90;;;26.30;96.30;;;;;;5070210;28;20407;-68
2023/07/01 11:43:59;;;;;;;3.93;2.60;;;26.50;96.70;;;;;;5069423;28;20499;-69
2023/07/01 11:46:33;;;;;;;4.10;2.10;;;26.50;97.30;;;;;;5069880;28;20539;-69
2023/07/01 11:49:16;;;;;;;3.00;2.20;;;26.50;97.00;;;;;;5069477;28;20320;-69
2023/07/01 11:51:47;;;;;;;3.20;2.37;;;27.20;96.50;;;;;;5069919;28;20859;-70
2023/07/01 11:54:13;;;;;;;4.30;3.00;;;26.70;96.70;;;;;;5069649;28;20488;-70
2023/07/01 11:56:39;;;;;;;6.80;2.67;;;26.90;97.20;;;;;;5058450;28;20465;-69
2023/07/01 11:59:05;;;;;;;4.80;2.87;;;27.10;96.20;;;;;;5069470;28;20413;-70
2023/07/01 12:01:30;;;;;;;5.63;2.70;;;26.90;95.80;;;;;;5071948;28;20169;-69
2023/07/01 12:03:56;;;;;;;2.70;2.33;;;26.50;95.50;;;;;;5073332;28;20231;-68
2023/07/01 12:06:24;;;;;;;3.43;2.30;;;26.40;96.20;;;;;;5073267;28;20274;-69
2023/07/01 12:08:54;;;;;;;3.80;2.73;;;26.40;96.50;;;;;;5073197;28;20201;-69
2023/07/01 12:11:21;;;;;;;8.53;3.00;;;26.00;96.00;;;;;;5073429;28;20504;-70
2023/07/01 12:13:46;;;;;;;6.17;3.00;;;26.00;95.90;;;;;;5072792;28;20494;-69
2023/07/01 12:16:12;;;;;;;3.33;3.03;;;26.10;96.80;;;;;;5073179;28;20494;-68
2023/07/01 12:18:38;;;;;;;2.90;2.50;;;26.30;96.70;;;;;;5073006;28;20336;-70
2023/07/01 12:21:04;;;;;;;3.57;3.20;;;26.30;96.40;;;;;;5072972;28;20176;-70
2023/07/01 12:23:38;;;;;;;3.70;3.10;;;26.00;95.80;;;;;;5072900;28;20543;-69
2023/07/01 12:26:03;;;;;;;3.60;2.83;;;26.00;96.40;;;;;;5072831;28;20536;-73
2023/07/01 12:28:29;;;;;;;3.67;2.33;;;25.90;96.40;;;;;;5055113;28;20470;-69
2023/07/01 12:30:55;;;;;;;4.53;2.80;;;25.90;96.20;;;;;;5073001;28;20180;-70
2023/07/01 12:33:20;;;;;;;3.23;2.57;;;26.40;95.90;;;;;;5073273;28;20178;-70
2023/07/01 12:35:46;;;;;;;4.20;2.50;;;26.60;95.70;;;;;;5057332;28;20194;-71
2023/07/01 12:38:13;;;;;;;7.73;2.30;;;26.60;95.70;;;;;;5072803;28;20583;-69
2023/07/01 12:40:39;;;;;;;2.60;2.40;;;27.00;95.40;;;;;;5072573;28;20431;-70
2023/07/01 12:43:06;;;;;;;6.40;2.70;;;26.90;95.60;;;;;;5072895;28;20412;-70
2023/07/01 12:45:32;;;;;;;3.80;2.30;;;26.70;95.40;;;;;;5072661;28;20210;-69
2023/07/01 12:47:57;;;;;;;3.10;2.13;;;26.80;95.40;;;;;;5096076;22;20582;-69
2023/07/01 12:50:23;;;;;;;2.87;2.30;;;27.10;94.30;;;;;;5066452;28;20173;-68